Langley Field

Airport
ICAO code: 
KLFI
Summary
ICAO Region: 
NAM
Territory: 
Location: 
Hampton, Virginia,
Coordinates: 
Aerial View: 
37° 5' 0.627" N, 76° 21' 33.207" W
Metar
Observation
KLFI 020956Z 20005KT 10SM CLR 10/06 A2997 RMK AO2A SLP155 T00950055 $
Station
Langley Air Force Base
Date/Time
2021-12-02 09:56:00
Wind direction
200°
Wind speed
05 kts
Lowest cloud amount
n/a
Temperature
9.5°C
Dew point
5.5°C
Humidity
76%
Weather condition
n/a

Description

Langley Field, formerly Langley Air Force Base, is a United States military facility located adjacent to Hampton and Newport News, Virginia. On 1 October 2010, Langley AFB was joined with Fort Eustis to become Joint Base Langley–Eustis.

Climatology

Humid “subtropical” climate (Köppen climate classification Cfa) - characterized by hot, humid summers and cool winters. Significant amounts of precipitation occur in all seasons in most areas. Winter rainfall (and sometimes snowfall) is associated with large storms that the westerlies steer from west to east. Most summer rainfall occurs during thunderstorms and occasional tropical storms (hurricanes).

Runways

Designator Length Width Surface Rops
8/26 3048 46 CON Yes/Yes
Airport map: 
Aerial View: 

SKYbrary Partners:

Safety knowledge contributed by: